Time;durP1;ratioP1;P1;durP2;ratioP2;P2;SDS_P1;SDS_P2;PMS_P1;PMS_P2;Temp;Humidity;BMP_temperature;BMP_pressure;BME280_temperature;BME280_humidity;BME280_pressure;Samples;Min_cycle;Max_cycle;Signal;HPM_P1;HPM_P2
2021/04/12 00:02:05;;;;;;;4.32;3.78;;;4.10;99.90;;;;;;5057292;28;20218;-78
2021/04/12 00:04:38;;;;;;;4.32;3.92;;;4.00;99.90;;;;;;5045415;28;20231;-78
2021/04/12 00:07:09;;;;;;;6.50;4.30;;;4.20;99.90;;;;;;5055471;28;20200;-78
2021/04/12 00:09:44;;;;;;;3.63;3.33;;;4.10;99.90;;;;;;5047636;28;20199;-78
2021/04/12 00:12:16;;;;;;;4.32;3.90;;;4.00;99.90;;;;;;5045271;28;20196;-78
2021/04/12 00:14:47;;;;;;;4.40;3.65;;;3.90;99.90;;;;;;5047485;28;20208;-78
2021/04/12 00:17:18;;;;;;;4.00;3.65;;;3.90;99.90;;;;;;5047834;28;20232;-78
2021/04/12 00:19:52;;;;;;;4.68;3.90;;;3.90;99.90;;;;;;5047264;28;20246;-78
2021/04/12 00:22:23;;;;;;;9.65;4.32;;;3.80;99.90;;;;;;5049813;28;20778;-78
2021/04/12 00:24:55;;;;;;;5.20;3.95;;;3.80;99.90;;;;;;5046493;28;20236;-78
2021/04/12 00:27:26;;;;;;;4.60;4.10;;;3.60;99.90;;;;;;5053997;28;20204;-77
2021/04/12 00:29:57;;;;;;;4.13;3.72;;;3.50;99.90;;;;;;5042985;28;20247;-77
2021/04/12 00:32:28;;;;;;;5.03;4.53;;;3.60;99.90;;;;;;5053838;28;20223;-78
2021/04/12 00:35:01;;;;;;;6.05;4.88;;;3.60;99.90;;;;;;5051899;28;20636;-78
2021/04/12 00:37:34;;;;;;;5.70;4.18;;;3.70;99.90;;;;;;5051983;28;20522;-78
2021/04/12 00:40:07;;;;;;;5.70;5.10;;;3.70;99.90;;;;;;5047918;28;20243;-78
2021/04/12 00:42:51;;;;;;;4.72;3.80;;;3.50;99.90;;;;;;5053122;28;20200;-78
2021/04/12 00:45:50;;;;;;;4.88;3.90;;;3.30;99.90;;;;;;5045254;28;20575;-78
2021/04/12 00:48:38;;;;;;;5.22;4.00;;;3.50;99.90;;;;;;5047377;28;20211;-78
2021/04/12 00:51:22;;;;;;;4.40;4.00;;;3.50;99.90;;;;;;5041006;28;20204;-78
2021/04/12 00:54:02;;;;;;;4.65;3.28;;;3.50;99.90;;;;;;5045326;28;20200;-78
2021/04/12 00:56:34;;;;;;;5.15;4.65;;;3.30;99.90;;;;;;5044712;28;20600;-78
2021/04/12 00:59:07;;;;;;;4.80;4.38;;;3.30;99.90;;;;;;5050477;28;20618;-78
2021/04/12 01:01:44;;;;;;;4.65;4.15;;;3.30;99.90;;;;;;5045827;28;20308;-78
2021/04/12 01:04:35;;;;;;;5.40;4.85;;;3.30;99.90;;;;;;5054441;28;20227;-78
2021/04/12 01:07:32;;;;;;;5.45;4.63;;;3.20;99.90;;;;;;5049858;28;20204;-78
2021/04/12 01:10:43;;;;;;;7.00;4.90;;;3.20;99.90;;;;;;5041935;28;20292;-78
2021/04/12 01:13:48;;;;;;;5.47;4.57;;;3.30;99.90;;;;;;5050778;28;20246;-77
2021/04/12 01:16:33;;;;;;;5.45;4.82;;;3.50;99.90;;;;;;5049279;28;20536;-78
2021/04/12 01:19:38;;;;;;;4.97;4.47;;;3.10;99.90;;;;;;5057333;28;20195;-78
2021/04/12 01:23:06;;;;;;;4.75;4.20;;;3.10;99.90;;;;;;5044121;28;20225;-78
2021/04/12 01:26:29;;;;;;;5.70;4.72;;;3.20;99.90;;;;;;5045795;28;20582;-78
2021/04/12 01:29:38;;;;;;;5.53;4.50;;;3.20;99.90;;;;;;5049922;28;20209;-78
2021/04/12 01:32:53;;;;;;;5.38;4.75;;;3.30;99.90;;;;;;5039885;28;20669;-78
2021/04/12 01:35:52;;;;;;;5.68;4.85;;;3.30;99.90;;;;;;5046466;28;20196;-78
2021/04/12 01:38:36;;;;;;;7.50;5.35;;;3.10;99.90;;;;;;5049608;28;20200;-78
2021/04/12 01:41:25;;;;;;;6.30;5.40;;;3.20;99.90;;;;;;5053878;28;20768;-78
2021/04/12 01:44:13;;;;;;;8.95;6.30;;;3.40;99.90;;;;;;5041961;28;20216;-78
2021/04/12 01:46:48;;;;;;;10.05;5.63;;;3.50;99.90;;;;;;5045573;28;20204;-78
2021/04/12 01:49:29;;;;;;;6.03;4.60;;;3.00;99.90;;;;;;5045075;28;20302;-78
2021/04/12 01:52:43;;;;;;;5.90;5.10;;;2.90;99.90;;;;;;5044900;28;20696;-78
2021/04/12 01:55:36;;;;;;;5.00;4.53;;;2.90;99.90;;;;;;4979952;28;20209;-78
2021/04/12 01:58:36;;;;;;;6.47;4.80;;;2.90;99.90;;;;;;4984141;28;20186;-78
2021/04/12 02:01:19;;;;;;;7.00;5.10;;;2.90;99.90;;;;;;5041250;28;20583;-78
2021/04/12 02:04:12;;;;;;;6.13;5.00;;;2.80;99.90;;;;;;5041771;28;20236;-78
2021/04/12 02:07:04;;;;;;;7.65;5.10;;;2.80;99.90;;;;;;5048859;28;20196;-78
2021/04/12 02:10:08;;;;;;;5.38;3.92;;;3.00;99.90;;;;;;5046513;28;20226;-78
2021/04/12 02:12:52;;;;;;;6.75;4.90;;;2.70;99.90;;;;;;5014032;28;20235;-78
2021/04/12 02:15:25;;;;;;;6.85;4.63;;;2.90;99.90;;;;;;5043993;28;20196;-78
2021/04/12 02:18:05;;;;;;;7.97;5.03;;;2.90;99.90;;;;;;5049551;28;20200;-78
2021/04/12 02:20:45;;;;;;;6.50;5.25;;;2.80;99.90;;;;;;5043923;28;20257;-78
2021/04/12 02:23:40;;;;;;;6.15;5.45;;;2.80;99.90;;;;;;5045459;28;20650;-79
2021/04/12 02:26:32;;;;;;;6.75;5.15;;;2.80;99.90;;;;;;5042686;28;20200;-78
2021/04/12 02:29:17;;;;;;;6.00;5.50;;;2.80;99.90;;;;;;5042649;28;20196;-78
2021/04/12 02:31:48;;;;;;;6.50;4.85;;;2.90;99.90;;;;;;5047318;28;20615;-78
2021/04/12 02:34:44;;;;;;;5.60;4.60;;;3.00;99.90;;;;;;5048747;28;20257;-78
2021/04/12 02:37:36;;;;;;;6.25;5.63;;;2.70;99.90;;;;;;5039808;28;20282;-78
2021/04/12 02:40:21;;;;;;;5.30;4.63;;;2.80;99.90;;;;;;5044107;28;20196;-78
2021/04/12 02:42:59;;;;;;;5.75;4.95;;;2.60;99.90;;;;;;5052422;28;20610;-78
2021/04/12 02:45:42;;;;;;;10.20;6.85;;;2.70;99.90;;;;;;5052409;28;20195;-78
2021/04/12 02:48:25;;;;;;;9.93;6.32;;;2.40;99.90;;;;;;5054259;28;20665;-78
2021/04/12 02:51:14;;;;;;;8.50;5.63;;;2.50;99.90;;;;;;5046864;28;20863;-79
2021/04/12 02:54:07;;;;;;;8.45;5.78;;;2.50;99.90;;;;;;5047200;28;20204;-78
2021/04/12 02:57:22;;;;;;;7.32;6.30;;;2.50;99.90;;;;;;5036297;28;20960;-79
2021/04/12 03:00:20;;;;;;;6.95;5.60;;;2.50;99.90;;;;;;5017134;28;20209;-78
2021/04/12 03:03:02;;;;;;;5.93;5.25;;;2.60;99.90;;;;;;5046166;28;20255;-79
2021/04/12 03:05:55;;;;;;;8.52;6.80;;;2.70;99.90;;;;;;5051124;28;20196;-78
2021/04/12 03:08:41;;;;;;;7.35;5.97;;;2.40;99.90;;;;;;5052768;28;20283;-78
2021/04/12 03:11:45;;;;;;;9.98;6.63;;;2.30;99.90;;;;;;5052389;28;20191;-78
2021/04/12 03:14:44;;;;;;;12.30;6.65;;;2.40;99.90;;;;;;5041576;28;20196;-78
2021/04/12 03:17:47;;;;;;;7.38;6.60;;;2.50;99.90;;;;;;5052996;28;20203;-78
2021/04/12 03:20:47;;;;;;;8.00;5.78;;;2.50;99.90;;;;;;5038420;28;20220;-78
2021/04/12 03:23:33;;;;;;;6.80;5.68;;;2.50;99.90;;;;;;5042157;28;20639;-78
2021/04/12 03:26:15;;;;;;;6.10;5.50;;;2.40;99.90;;;;;;5047125;28;20261;-78
2021/04/12 03:28:59;;;;;;;10.02;6.00;;;2.40;99.90;;;;;;5056911;28;20645;-78
2021/04/12 03:31:58;;;;;;;11.93;7.15;;;2.60;99.90;;;;;;5049778;28;20227;-78
2021/04/12 03:34:30;;;;;;;7.93;6.30;;;2.60;99.90;;;;;;5051223;28;20211;-78
2021/04/12 03:37:34;;;;;;;8.88;6.13;;;2.60;99.90;;;;;;5052689;28;20196;-78
2021/04/12 03:40:08;;;;;;;6.95;6.25;;;2.70;99.90;;;;;;5040483;28;20207;-78
2021/04/12 03:43:08;;;;;;;11.07;6.32;;;2.60;99.90;;;;;;5044606;28;20208;-78
2021/04/12 03:46:02;;;;;;;7.63;5.30;;;2.80;99.90;;;;;;5047225;28;20215;-78
2021/04/12 03:48:45;;;;;;;9.23;6.35;;;2.50;99.90;;;;;;5024960;28;20216;-79
2021/04/12 03:51:36;;;;;;;7.85;6.45;;;2.50;99.90;;;;;;5046168;28;20200;-79
2021/04/12 03:54:31;;;;;;;6.85;6.15;;;2.50;99.90;;;;;;5045574;28;20211;-78
2021/04/12 03:57:33;;;;;;;7.43;5.72;;;2.50;99.90;;;;;;5045687;28;20206;-78
2021/04/12 04:00:13;;;;;;;7.07;5.65;;;2.60;99.90;;;;;;5051006;28;20208;-78
2021/04/12 04:02:47;;;;;;;8.52;5.50;;;2.50;99.90;;;;;;5044100;28;20932;-78
2021/04/12 04:05:24;;;;;;;8.15;6.75;;;2.50;99.90;;;;;;5049328;28;20274;-78
2021/04/12 04:08:24;;;;;;;8.80;6.38;;;2.70;99.90;;;;;;5049870;28;20646;-78
2021/04/12 04:11:30;;;;;;;8.35;5.18;;;2.70;99.90;;;;;;5046903;28;20261;-78
2021/04/12 04:14:11;;;;;;;10.38;6.72;;;2.60;99.90;;;;;;5042498;28;20220;-77
2021/04/12 04:16:51;;;;;;;6.85;6.00;;;2.40;99.90;;;;;;5043270;28;20258;-78
2021/04/12 04:19:36;;;;;;;7.93;6.38;;;2.60;99.90;;;;;;5043391;28;20196;-78
2021/04/12 04:22:20;;;;;;;10.60;7.60;;;2.70;99.90;;;;;;5057965;28;20200;-78
2021/04/12 04:25:36;;;;;;;8.65;7.05;;;2.50;99.90;;;;;;5045510;28;20261;-78
2021/04/12 04:28:40;;;;;;;8.70;6.00;;;2.70;99.90;;;;;;4994131;28;20209;-78
2021/04/12 04:31:34;;;;;;;7.55;5.95;;;2.60;99.90;;;;;;5049916;28;20221;-78
2021/04/12 04:34:20;;;;;;;8.55;7.20;;;2.70;99.90;;;;;;5044769;28;20236;-78
2021/04/12 04:37:28;;;;;;;8.23;7.13;;;2.60;99.90;;;;;;5043658;28;20262;-78
2021/04/12 04:40:20;;;;;;;8.73;6.25;;;2.70;99.90;;;;;;5044999;28;20200;-78
2021/04/12 04:43:08;;;;;;;9.15;7.65;;;2.70;99.90;;;;;;5056768;28;20235;-78
2021/04/12 04:45:57;;;;;;;10.75;6.53;;;2.70;99.90;;;;;;5054969;28;20208;-78
2021/04/12 04:48:49;;;;;;;5.95;4.63;;;2.50;99.90;;;;;;5048604;28;20223;-78
2021/04/12 04:51:31;;;;;;;6.80;5.68;;;2.30;99.90;;;;;;5052301;28;20202;-78
2021/04/12 04:54:23;;;;;;;5.63;4.50;;;2.40;99.90;;;;;;5051761;28;20211;-78
2021/04/12 04:57:02;;;;;;;6.32;5.15;;;2.30;99.90;;;;;;5044096;28;20257;-78
2021/04/12 04:59:48;;;;;;;6.05;5.03;;;2.50;99.90;;;;;;5046977;28;20196;-78
2021/04/12 05:02:35;;;;;;;5.75;4.65;;;2.50;99.90;;;;;;5042684;28;20205;-78
2021/04/12 05:05:20;;;;;;;6.95;5.22;;;2.40;99.90;;;;;;5046286;28;20231;-78
2021/04/12 05:08:21;;;;;;;5.40;4.05;;;2.20;99.90;;;;;;5046372;28;20607;-78
2021/04/12 05:11:08;;;;;;;5.47;4.40;;;2.10;99.90;;;;;;5038889;28;20200;-78
2021/04/12 05:13:48;;;;;;;5.75;4.10;;;2.20;99.90;;;;;;5050184;28;20204;-78
2021/04/12 05:16:43;;;;;;;5.43;4.50;;;2.40;99.90;;;;;;5047875;28;20672;-78
2021/04/12 05:19:35;;;;;;;10.27;5.88;;;2.40;99.90;;;;;;5048161;28;20188;-78
2021/04/12 05:22:38;;;;;;;5.43;4.68;;;2.30;99.90;;;;;;5048899;28;20199;-78
2021/04/12 05:25:28;;;;;;;7.25;5.38;;;2.40;99.90;;;;;;5046291;28;20227;-78
2021/04/12 05:28:24;;;;;;;7.20;5.82;;;2.40;99.90;;;;;;5046161;28;20200;-78
2021/04/12 05:31:06;;;;;;;5.85;4.95;;;2.30;99.90;;;;;;5047127;28;20912;-78
2021/04/12 05:34:04;;;;;;;6.00;4.80;;;2.30;99.90;;;;;;5046935;28;20208;-78
2021/04/12 05:36:57;;;;;;;6.82;5.18;;;2.20;99.90;;;;;;5049210;28;20272;-78
2021/04/12 05:39:42;;;;;;;7.07;5.68;;;2.20;99.90;;;;;;5051902;28;20587;-78
2021/04/12 05:42:26;;;;;;;6.30;5.35;;;2.40;99.90;;;;;;5050217;28;20187;-78
2021/04/12 05:45:25;;;;;;;6.18;4.88;;;2.30;99.90;;;;;;5047273;28;20224;-77
2021/04/12 05:48:24;;;;;;;5.95;4.40;;;2.40;99.90;;;;;;5051455;28;20203;-78
2021/04/12 05:51:09;;;;;;;7.78;5.90;;;2.30;99.90;;;;;;5046749;28;20196;-79
2021/04/12 05:53:56;;;;;;;7.60;5.65;;;2.30;99.90;;;;;;5047192;28;20207;-79
2021/04/12 05:56:32;;;;;;;6.50;5.85;;;2.40;99.90;;;;;;5047345;28;20230;-79
2021/04/12 05:59:22;;;;;;;8.60;6.55;;;2.30;99.90;;;;;;5048556;28;20192;-79
2021/04/12 06:02:22;;;;;;;8.48;6.00;;;2.40;99.90;;;;;;5051889;28;20204;-80
2021/04/12 06:05:05;;;;;;;12.30;7.88;;;2.20;99.90;;;;;;5045891;28;20219;-80
2021/04/12 06:08:25;;;;;;;9.82;7.10;;;2.20;99.90;;;;;;5048402;28;21606;-81
2021/04/12 06:11:25;;;;;;;10.52;8.45;;;2.30;99.90;;;;;;5047609;28;20250;-80
2021/04/12 06:14:35;;;;;;;8.90;7.45;;;2.40;99.90;;;;;;5032937;28;20208;-82
2021/04/12 06:18:05;;;;;;;8.73;7.70;;;2.30;99.90;;;;;;5047164;28;20196;-81
2021/04/12 06:20:57;;;;;;;9.43;7.53;;;2.20;99.90;;;;;;4995827;28;20209;-80
2021/04/12 06:24:15;;;;;;;10.40;8.27;;;2.40;99.90;;;;;;4984529;28;20637;-81
2021/04/12 06:26:57;;;;;;;12.70;8.77;;;2.60;99.90;;;;;;5046733;28;20214;-80
2021/04/12 06:29:51;;;;;;;10.70;8.27;;;2.70;99.90;;;;;;5051548;28;20195;-80
2021/04/12 06:32:33;;;;;;;13.00;8.55;;;2.60;99.90;;;;;;5050094;28;20195;-80
2021/04/12 06:35:45;;;;;;;14.10;10.40;;;2.70;99.90;;;;;;5050825;28;20204;-80
2021/04/12 06:38:53;;;;;;;14.90;9.48;;;2.70;99.90;;;;;;5049938;28;20249;-78
2021/04/12 06:41:56;;;;;;;10.77;8.43;;;2.80;99.90;;;;;;5050732;28;20222;-80
2021/04/12 06:45:03;;;;;;;10.15;8.35;;;2.90;99.90;;;;;;5048624;28;20219;-80
2021/04/12 06:48:21;;;;;;;14.20;9.40;;;2.80;99.90;;;;;;5052618;28;20199;-79
2021/04/12 06:51:29;;;;;;;9.77;8.50;;;3.00;99.90;;;;;;5049975;28;20645;-80
2021/04/12 06:54:34;;;;;;;17.33;9.07;;;3.10;99.90;;;;;;5027375;28;20234;-80
2021/04/12 06:57:49;;;;;;;9.60;8.52;;;2.90;99.90;;;;;;5049745;28;20223;-82
2021/04/12 07:00:49;;;;;;;12.02;9.02;;;3.00;99.90;;;;;;5045547;28;20636;-81
2021/04/12 07:04:03;;;;;;;10.90;7.95;;;3.10;99.90;;;;;;5053006;28;20551;-80
2021/04/12 07:06:44;;;;;;;11.23;8.52;;;3.10;99.90;;;;;;5049958;28;20199;-79
2021/04/12 07:09:58;;;;;;;11.23;8.00;;;3.20;99.90;;;;;;5049301;28;20200;-80
2021/04/12 07:12:58;;;;;;;12.20;8.77;;;3.20;99.90;;;;;;5048214;28;20200;-80
2021/04/12 07:16:14;;;;;;;15.15;10.32;;;3.20;99.90;;;;;;5052453;28;20207;-80
2021/04/12 07:19:16;;;;;;;15.10;9.23;;;3.10;99.90;;;;;;5008285;28;20202;-80
2021/04/12 07:22:23;;;;;;;10.77;7.93;;;3.20;99.90;;;;;;5045299;28;20238;-80
2021/04/12 07:25:27;;;;;;;11.45;8.00;;;3.10;99.90;;;;;;5049386;28;20272;-81
2021/04/12 07:28:34;;;;;;;15.70;9.40;;;3.30;99.90;;;;;;5051589;28;20261;-80
2021/04/12 07:31:47;;;;;;;13.45;9.80;;;3.30;99.90;;;;;;5051103;28;20574;-80
2021/04/12 07:35:01;;;;;;;14.43;10.10;;;3.30;99.90;;;;;;5049854;28;20197;-81
2021/04/12 07:38:10;;;;;;;13.85;9.95;;;3.30;99.90;;;;;;5052260;28;20614;-81
2021/04/12 07:41:09;;;;;;;12.55;9.60;;;3.40;99.90;;;;;;4977900;28;20222;-80
2021/04/12 07:44:30;;;;;;;20.73;11.18;;;3.40;99.90;;;;;;5051568;28;20702;-80
2021/04/12 07:47:42;;;;;;;15.60;10.52;;;3.30;99.90;;;;;;5045849;28;20192;-80
2021/04/12 07:50:51;;;;;;;15.20;10.52;;;3.60;99.90;;;;;;5051740;28;20199;-81
2021/04/12 07:53:55;;;;;;;14.57;11.35;;;3.60;99.90;;;;;;5049752;28;20233;-79
2021/04/12 07:56:52;;;;;;;14.65;10.85;;;3.70;99.90;;;;;;5052164;28;20930;-78
2021/04/12 08:00:00;;;;;;;17.75;12.65;;;3.70;99.90;;;;;;5049051;28;20191;-79
2021/04/12 08:02:51;;;;;;;16.10;11.43;;;3.60;99.90;;;;;;5025967;28;20323;-78
2021/04/12 08:05:58;;;;;;;17.27;11.45;;;3.60;99.90;;;;;;5047356;28;20216;-78
2021/04/12 08:08:44;;;;;;;19.30;13.15;;;3.80;99.90;;;;;;5046809;28;20540;-79
2021/04/12 08:12:03;;;;;;;19.63;12.57;;;3.80;99.90;;;;;;5047743;28;20249;-80
2021/04/12 08:15:11;;;;;;;16.35;12.88;;;4.00;99.90;;;;;;5013012;28;20557;-80
2021/04/12 08:18:31;;;;;;;17.27;13.50;;;4.00;99.90;;;;;;5040363;28;20256;-80
2021/04/12 08:21:35;;;;;;;18.05;12.90;;;4.20;99.90;;;;;;4954452;28;20300;-80
2021/04/12 08:24:46;;;;;;;19.27;14.02;;;4.30;99.90;;;;;;5018262;28;20704;-79
2021/04/12 08:28:15;;;;;;;16.25;12.43;;;4.40;99.90;;;;;;5051699;28;20228;-80
2021/04/12 08:31:23;;;;;;;16.50;12.70;;;4.70;99.90;;;;;;5028330;28;20196;-79
2021/04/12 08:34:31;;;;;;;16.83;13.15;;;4.80;99.90;;;;;;5040631;28;20289;-79
2021/04/12 08:37:35;;;;;;;17.58;13.65;;;4.80;99.90;;;;;;5029991;28;20215;-79
2021/04/12 08:40:31;;;;;;;14.70;13.20;;;4.70;99.90;;;;;;5055137;28;20204;-79
2021/04/12 08:43:37;;;;;;;18.52;13.27;;;4.70;99.90;;;;;;5041240;28;20203;-79
2021/04/12 08:46:36;;;;;;;24.80;13.02;;;4.50;99.90;;;;;;5030653;28;20203;-79
2021/04/12 08:49:41;;;;;;;15.43;11.68;;;4.30;99.90;;;;;;5045447;28;20207;-79
2021/04/12 08:52:38;;;;;;;18.65;11.88;;;4.40;99.90;;;;;;5049570;28;20200;-80
2021/04/12 08:55:38;;;;;;;15.43;10.73;;;4.80;99.90;;;;;;5045605;28;20219;-79
2021/04/12 08:58:29;;;;;;;13.70;10.60;;;4.80;99.90;;;;;;5042399;28;20677;-79
2021/04/12 09:01:35;;;;;;;11.75;9.98;;;4.60;99.90;;;;;;5055000;28;20261;-79
2021/04/12 09:04:41;;;;;;;18.75;12.20;;;4.40;99.90;;;;;;5041060;28;20238;-79
2021/04/12 09:07:38;;;;;;;13.30;10.15;;;4.50;99.90;;;;;;5047240;28;20554;-79
2021/04/12 09:10:57;;;;;;;11.60;10.40;;;4.80;99.90;;;;;;5041698;28;20200;-79
2021/04/12 09:14:03;;;;;;;13.10;10.52;;;4.90;99.90;;;;;;5014495;28;20200;-78
2021/04/12 09:16:43;;;;;;;14.32;10.57;;;5.40;99.90;;;;;;5019755;28;20231;-79
2021/04/12 09:19:40;;;;;;;11.85;9.50;;;5.30;99.10;;;;;;5043624;28;20212;-79
2021/04/12 09:22:39;;;;;;;16.25;10.27;;;5.20;99.20;;;;;;4993418;28;20715;-80
2021/04/12 09:25:36;;;;;;;19.73;9.70;;;5.00;98.10;;;;;;5045119;28;20349;-80
2021/04/12 09:28:21;;;;;;;10.25;7.70;;;4.90;98.50;;;;;;5048548;28;20707;-80
2021/04/12 09:35:14;;;;;;;11.65;8.40;;;5.20;99.00;;;;;;5048699;28;20237;-81
2021/04/12 09:38:22;;;;;;;9.82;8.45;;;5.40;98.30;;;;;;5045515;28;20200;-82
2021/04/12 09:41:31;;;;;;;12.45;8.13;;;5.30;95.00;;;;;;5001749;28;20216;-82
2021/04/12 09:44:25;;;;;;;10.13;7.53;;;5.20;96.50;;;;;;5046795;28;20562;-81
2021/04/12 09:47:32;;;;;;;8.95;7.55;;;5.30;95.30;;;;;;5047671;28;20547;-83
2021/04/12 09:50:35;;;;;;;7.53;6.70;;;5.60;96.60;;;;;;5049028;28;20200;-82
2021/04/12 09:53:30;;;;;;;8.63;6.60;;;5.70;95.90;;;;;;5047128;28;20196;-82
2021/04/12 09:56:21;;;;;;;7.72;6.30;;;5.90;95.20;;;;;;5048415;28;20192;-82
2021/04/12 09:59:10;;;;;;;7.70;6.43;;;6.10;93.40;;;;;;5035918;28;20274;-82
2021/04/12 10:02:07;;;;;;;6.50;5.90;;;5.80;94.10;;;;;;5043092;28;20199;-82
2021/04/12 10:04:58;;;;;;;11.95;5.80;;;5.90;94.00;;;;;;5055508;28;20220;-80
2021/04/12 10:07:58;;;;;;;6.10;5.50;;;6.00;92.90;;;;;;5049175;28;20204;-83
2021/04/12 10:10:27;;;;;;;7.03;5.40;;;6.00;93.00;;;;;;5046931;28;20195;-81
2021/04/12 10:13:13;;;;;;;6.97;5.47;;;5.80;90.90;;;;;;5047681;28;20220;-81
2021/04/12 10:16:04;;;;;;;8.48;5.55;;;5.50;92.70;;;;;;5042251;28;20188;-81
2021/04/12 10:18:59;;;;;;;6.65;5.72;;;5.50;92.70;;;;;;5046894;28;20217;-82
2021/04/12 10:21:33;;;;;;;5.45;4.95;;;5.50;93.70;;;;;;5048838;28;20204;-82
2021/04/12 10:24:08;;;;;;;7.07;4.38;;;5.70;92.50;;;;;;5048889;28;20281;-82
2021/04/12 10:26:40;;;;;;;8.48;5.90;;;6.00;91.60;;;;;;5049433;28;20212;-82
2021/04/12 10:29:12;;;;;;;7.10;4.93;;;6.30;92.20;;;;;;5046859;28;20200;-82
2021/04/12 10:31:42;;;;;;;5.00;4.63;;;6.40;91.30;;;;;;5049313;28;20196;-82
2021/04/12 10:34:15;;;;;;;5.35;4.40;;;6.50;90.10;;;;;;5048304;28;20245;-82
2021/04/12 10:36:51;;;;;;;4.47;4.07;;;6.40;87.10;;;;;;5046718;28;20199;-83
2021/04/12 10:39:31;;;;;;;3.30;2.97;;;6.10;89.00;;;;;;5046423;28;20206;-82
2021/04/12 10:42:06;;;;;;;3.38;3.05;;;6.00;84.30;;;;;;5049991;28;20192;-83
2021/04/12 10:44:38;;;;;;;2.90;2.60;;;6.40;84.00;;;;;;5048387;28;20238;-82
2021/04/12 10:47:12;;;;;;;6.00;3.55;;;6.60;82.10;;;;;;5047731;28;20765;-82
2021/04/12 10:49:59;;;;;;;4.55;4.07;;;6.80;78.00;;;;;;5049298;28;20200;-82
2021/04/12 10:52:33;;;;;;;3.70;3.40;;;6.70;79.40;;;;;;5049044;28;20222;-82
2021/04/12 10:55:12;;;;;;;6.03;4.82;;;7.10;80.30;;;;;;5046338;28;20192;-83
2021/04/12 10:57:43;;;;;;;3.70;3.40;;;7.10;79.80;;;;;;5046017;28;20203;-83
2021/04/12 11:00:27;;;;;;;5.60;4.97;;;6.90;77.30;;;;;;5046793;28;20548;-83
2021/04/12 11:03:21;;;;;;;9.05;8.15;;;6.40;80.60;;;;;;5043499;28;20692;-82
2021/04/12 11:06:03;;;;;;;10.60;8.50;;;6.40;81.30;;;;;;5049676;28;20224;-83
2021/04/12 11:08:43;;;;;;;5.43;4.93;;;6.50;80.20;;;;;;5050519;28;20620;-81
2021/04/12 11:11:15;;;;;;;4.60;4.20;;;6.80;78.80;;;;;;5052352;28;20289;-82
2021/04/12 11:13:48;;;;;;;5.30;4.80;;;6.80;80.40;;;;;;5053754;28;20204;-83
2021/04/12 11:16:20;;;;;;;5.30;4.40;;;6.30;77.90;;;;;;5049667;28;20250;-83
2021/04/12 11:19:16;;;;;;;4.80;4.40;;;6.30;78.70;;;;;;5050278;28;20603;-83
2021/04/12 11:21:53;;;;;;;5.22;4.72;;;6.20;78.80;;;;;;5046276;28;20204;-82
2021/04/12 11:24:25;;;;;;;7.45;4.93;;;5.80;79.30;;;;;;5051797;28;20720;-83
2021/04/12 11:27:37;;;;;;;4.82;4.43;;;5.90;82.20;;;;;;5046303;28;20196;-83
2021/04/12 11:30:11;;;;;;;5.55;5.13;;;6.00;77.70;;;;;;5018135;28;20216;-83
2021/04/12 11:32:51;;;;;;;6.45;4.40;;;6.40;79.40;;;;;;5048385;28;20200;-83
2021/04/12 11:35:23;;;;;;;6.50;5.72;;;6.90;77.30;;;;;;5051208;28;20203;-83
2021/04/12 11:38:01;;;;;;;8.60;7.55;;;7.20;73.70;;;;;;5045143;28;20196;-83
2021/04/12 11:40:34;;;;;;;5.28;3.35;;;7.10;73.40;;;;;;5051700;28;20302;-83
2021/04/12 11:43:11;;;;;;;5.03;4.00;;;6.90;69.40;;;;;;5047910;28;20219;-83
2021/04/12 11:45:42;;;;;;;8.65;7.95;;;6.60;68.20;;;;;;5048592;28;20227;-83
2021/04/12 11:48:34;;;;;;;7.68;6.63;;;6.90;72.20;;;;;;5051023;28;20189;-84
2021/04/12 11:51:10;;;;;;;9.10;6.22;;;7.50;74.00;;;;;;5046919;28;20207;-83
2021/04/12 11:53:49;;;;;;;4.60;4.20;;;7.60;70.90;;;;;;5050422;28;20326;-83
2021/04/12 11:56:34;;;;;;;6.28;5.00;;;7.60;70.70;;;;;;5049834;28;20211;-83
2021/04/12 11:59:07;;;;;;;4.45;3.80;;;7.30;70.30;;;;;;5045347;28;20202;-83
2021/04/12 12:01:46;;;;;;;5.22;4.60;;;7.80;73.20;;;;;;5048364;28;20286;-83
2021/04/12 12:04:20;;;;;;;3.75;3.42;;;8.50;69.50;;;;;;5049846;28;20219;-83
2021/04/12 12:07:06;;;;;;;4.00;3.22;;;9.60;60.40;;;;;;5049025;28;20212;-83
2021/04/12 12:09:44;;;;;;;3.45;3.13;;;9.30;61.20;;;;;;5046484;28;20222;-83
2021/04/12 12:12:35;;;;;;;3.50;2.58;;;8.30;58.10;;;;;;5054008;28;20560;-84
2021/04/12 12:15:20;;;;;;;3.45;3.00;;;7.80;59.70;;;;;;5047898;28;20208;-84
2021/04/12 12:18:05;;;;;;;2.92;2.72;;;7.60;61.40;;;;;;5046479;28;20208;-84
2021/04/12 12:20:44;;;;;;;4.88;3.35;;;7.20;61.30;;;;;;5048628;28;20684;-84
2021/04/12 12:23:40;;;;;;;3.10;2.85;;;6.80;61.20;;;;;;5049634;28;20203;-84
2021/04/12 12:26:27;;;;;;;2.45;2.08;;;6.80;65.20;;;;;;5049854;28;20204;-82
2021/04/12 12:29:19;;;;;;;3.78;2.83;;;6.70;63.90;;;;;;5046195;28;20192;-81
2021/04/12 12:32:31;;;;;;;2.13;2.00;;;6.70;63.00;;;;;;5048639;28;20196;-82
2021/04/12 12:35:12;;;;;;;2.80;2.60;;;6.60;61.50;;;;;;5047093;28;20204;-82
2021/04/12 12:38:01;;;;;;;3.53;2.80;;;6.80;62.10;;;;;;5049137;28;20204;-81
2021/04/12 12:40:31;;;;;;;4.13;2.08;;;7.10;61.10;;;;;;5048813;28;20196;-81
2021/04/12 12:43:05;;;;;;;3.28;2.35;;;7.70;59.70;;;;;;5044654;28;20549;-81
2021/04/12 12:45:36;;;;;;;3.58;2.30;;;8.60;59.30;;;;;;5048743;28;20731;-81
2021/04/12 12:48:12;;;;;;;3.08;2.78;;;8.90;58.50;;;;;;5045380;28;20200;-81
2021/04/12 12:50:48;;;;;;;1.92;1.83;;;8.90;58.70;;;;;;5050365;28;20580;-81
2021/04/12 12:53:25;;;;;;;2.40;2.20;;;8.50;57.60;;;;;;5043355;28;20211;-81
2021/04/12 12:56:45;;;;;;;2.40;2.20;;;8.50;58.00;;;;;;5054582;28;20207;-85
2021/04/12 13:00:21;;;;;;;2.10;2.00;;;8.50;58.10;;;;;;5047764;28;20196;-84
2021/04/12 13:10:04;;;;;;;1.80;1.70;;;7.80;56.00;;;;;;5040622;28;20207;-82
2021/04/12 13:13:04;;;;;;;;;;;;;;;;;;;;;
2021/04/12 13:16:16;;;;;;;1.92;1.83;;;8.10;55.90;;;;;;5046497;28;20253;-82
2021/04/12 13:19:34;;;;;;;2.58;2.38;;;8.10;54.40;;;;;;5083788;28;20187;-82
2021/04/12 13:22:35;;;;;;;2.03;1.85;;;7.80;54.50;;;;;;5087373;28;20300;-82
2021/04/12 13:25:38;;;;;;;3.38;2.95;;;8.10;57.00;;;;;;5064241;28;20245;-83
2021/04/12 13:28:30;;;;;;;4.40;2.65;;;8.40;57.90;;;;;;5093956;28;20736;-84
2021/04/12 13:31:02;;;;;;;1.80;1.70;;;8.10;55.70;;;;;;5086751;28;20629;-82
2021/04/12 13:33:33;;;;;;;2.00;1.80;;;7.70;54.80;;;;;;5092181;28;20198;-82
2021/04/12 13:36:07;;;;;;;4.53;2.20;;;7.60;56.20;;;;;;5083889;28;20705;-81
2021/04/12 13:38:37;;;;;;;2.15;2.00;;;7.80;56.70;;;;;;5090275;28;20217;-81
2021/04/12 13:41:09;;;;;;;2.17;1.80;;;7.80;55.30;;;;;;5087749;28;20264;-83
2021/04/12 13:43:38;;;;;;;2.25;2.05;;;7.80;55.00;;;;;;5092108;28;20191;-83
2021/04/12 13:46:19;;;;;;;6.10;2.60;;;8.10;55.30;;;;;;5086685;28;20226;-82
2021/04/12 13:49:01;;;;;;;4.40;2.25;;;8.80;54.40;;;;;;5090608;28;20302;-81
2021/04/12 13:51:34;;;;;;;1.57;1.47;;;10.60;52.70;;;;;;5085065;28;20719;-81
2021/04/12 13:54:12;;;;;;;3.07;2.30;;;12.40;48.60;;;;;;5088007;28;20674;-81
2021/04/12 13:56:43;;;;;;;3.10;2.83;;;13.60;47.10;;;;;;5086934;28;20643;-82
2021/04/12 13:59:15;;;;;;;2.30;1.97;;;13.20;46.70;;;;;;5091302;28;20674;-82
2021/04/12 14:01:49;;;;;;;2.50;2.30;;;12.80;45.90;;;;;;5090303;28;20643;-82
2021/04/12 14:04:20;;;;;;;2.50;2.30;;;11.00;46.30;;;;;;5089317;28;20647;-82
2021/04/12 14:06:56;;;;;;;3.80;2.57;;;9.90;48.50;;;;;;5089769;28;20639;-81
2021/04/12 14:09:31;;;;;;;2.23;2.03;;;9.00;49.90;;;;;;5089350;28;20628;-81
2021/04/12 14:12:01;;;;;;;2.42;2.20;;;8.60;52.20;;;;;;5089004;28;20675;-82
2021/04/12 14:14:30;;;;;;;4.97;3.28;;;8.70;52.10;;;;;;5088448;28;20190;-81
2021/04/12 14:17:02;;;;;;;2.72;2.45;;;8.60;53.20;;;;;;5086907;28;20250;-82
2021/04/12 14:19:34;;;;;;;2.25;2.05;;;8.80;51.40;;;;;;5088604;28;20205;-81
2021/04/12 14:22:08;;;;;;;3.08;2.88;;;9.10;51.10;;;;;;5089092;28;20203;-82
2021/04/12 14:24:42;;;;;;;2.40;2.17;;;9.20;50.70;;;;;;5091241;28;20248;-82
2021/04/12 14:27:16;;;;;;;2.03;1.90;;;9.00;50.10;;;;;;5089914;28;20217;-82
2021/04/12 14:29:48;;;;;;;2.05;1.95;;;9.20;50.30;;;;;;5086751;28;20248;-82
2021/04/12 14:32:19;;;;;;;2.17;2.07;;;9.60;49.70;;;;;;5089511;28;20195;-83
2021/04/12 14:34:51;;;;;;;4.68;2.05;;;10.00;48.30;;;;;;5084129;28;20681;-80
2021/04/12 14:37:26;;;;;;;2.27;2.07;;;10.40;48.70;;;;;;5088577;28;20237;-81
2021/04/12 14:40:07;;;;;;;2.43;2.00;;;10.50;47.90;;;;;;5086188;28;20631;-80
2021/04/12 14:42:38;;;;;;;3.10;2.77;;;10.70;46.50;;;;;;5090396;28;20613;-81
2021/04/12 14:45:09;;;;;;;2.40;2.20;;;11.10;48.30;;;;;;5089929;28;21201;-80
2021/04/12 14:47:45;;;;;;;2.70;2.50;;;10.40;47.20;;;;;;5094733;28;20996;-80
2021/04/12 14:50:18;;;;;;;2.53;2.20;;;9.90;49.10;;;;;;5087984;28;20730;-82
2021/04/12 14:52:49;;;;;;;2.37;2.27;;;9.90;48.40;;;;;;5090893;28;20616;-81
2021/04/12 14:55:28;;;;;;;2.37;2.17;;;9.80;48.90;;;;;;5089578;28;20715;-80
2021/04/12 14:58:08;;;;;;;2.13;2.03;;;9.60;48.10;;;;;;5091453;28;20623;-81
2021/04/12 15:00:37;;;;;;;2.77;2.50;;;9.40;49.10;;;;;;5091958;28;20937;-80
2021/04/12 15:03:10;;;;;;;3.92;2.65;;;9.10;49.30;;;;;;5091901;28;20632;-81